createdAt,value
2022-12-28T00:01:33.553Z,1.70
2022-12-28T00:03:35.667Z,2.05
2022-12-28T00:05:40.228Z,1.55
2022-12-28T00:07:41.665Z,1.65
2022-12-28T00:09:43.150Z,1.92
2022-12-28T00:11:44.625Z,1.35
2022-12-28T00:13:46.147Z,2.00
2022-12-28T00:15:47.615Z,1.80
2022-12-28T00:17:49.128Z,1.77
2022-12-28T00:19:50.586Z,1.60
2022-12-28T00:21:53.530Z,1.90
2022-12-28T00:23:58.284Z,1.63
2022-12-28T00:26:13.456Z,2.05
2022-12-28T00:28:14.889Z,1.98
2022-12-28T00:30:16.453Z,1.70
2022-12-28T00:32:17.889Z,1.58
2022-12-28T00:34:19.355Z,1.80
2022-12-28T00:36:20.821Z,1.63
2022-12-28T00:38:22.414Z,1.50
2022-12-28T00:40:24.358Z,1.45
2022-12-28T00:42:25.901Z,2.28
2022-12-28T00:44:27.365Z,1.50
2022-12-28T00:46:28.824Z,1.65
2022-12-28T00:48:30.332Z,1.60
2022-12-28T00:50:32.093Z,1.77
2022-12-28T00:52:33.610Z,1.65
2022-12-28T00:54:35.120Z,1.60
2022-12-28T00:56:36.621Z,1.83
2022-12-28T00:58:38.601Z,1.95
2022-12-28T01:00:40.130Z,2.33
2022-12-28T01:02:41.687Z,1.63
2022-12-28T01:04:43.302Z,1.33
2022-12-28T01:06:44.804Z,1.60
2022-12-28T01:08:46.822Z,2.13
2022-12-28T01:10:48.329Z,1.25
2022-12-28T01:12:49.787Z,1.70
2022-12-28T01:14:51.259Z,1.70
2022-12-28T01:16:52.804Z,1.65
2022-12-28T01:18:57.338Z,1.30
2022-12-28T01:20:58.819Z,1.75
2022-12-28T01:23:00.257Z,1.35
2022-12-28T01:25:01.740Z,1.10
2022-12-28T01:27:03.337Z,1.50
2022-12-28T01:29:04.784Z,1.50
2022-12-28T01:31:12.297Z,1.15
2022-12-28T01:33:13.729Z,1.63
2022-12-28T01:35:15.181Z,1.45
2022-12-28T01:37:16.745Z,1.35
2022-12-28T01:39:18.245Z,1.13
2022-12-28T01:41:20.079Z,1.38
2022-12-28T01:43:45.374Z,1.30
2022-12-28T01:45:52.674Z,1.80
2022-12-28T01:47:56.311Z,1.80
2022-12-28T01:50:11.592Z,1.67
2022-12-28T01:52:15.882Z,1.83
2022-12-28T01:54:19.137Z,1.67
2022-12-28T01:56:22.526Z,1.50
2022-12-28T01:58:28.514Z,1.35
2022-12-28T02:00:30.063Z,1.50
2022-12-28T02:02:31.949Z,1.30
2022-12-28T02:04:33.657Z,1.40
2022-12-28T02:06:35.188Z,1.52
2022-12-28T02:09:15.509Z,1.70
2022-12-28T02:11:18.952Z,1.67
2022-12-28T02:13:22.188Z,1.70
2022-12-28T02:15:23.706Z,1.50
2022-12-28T02:17:25.391Z,1.60
2022-12-28T02:19:40.210Z,1.50
2022-12-28T02:22:00.994Z,2.00
2022-12-28T02:24:29.841Z,1.30
2022-12-28T02:26:53.710Z,1.60
2022-12-28T02:29:07.456Z,1.77
2022-12-28T02:31:17.165Z,1.45
2022-12-28T02:33:26.973Z,1.60
2022-12-28T02:35:38.950Z,1.52
2022-12-28T02:37:56.554Z,1.77
2022-12-28T02:40:37.991Z,1.95
2022-12-28T02:42:40.470Z,1.73
2022-12-28T02:45:00.631Z,1.88
2022-12-28T02:47:20.992Z,1.50
2022-12-28T02:49:46.984Z,1.40
2022-12-28T02:52:15.576Z,1.80
2022-12-28T02:57:00.078Z,1.67
2022-12-28T02:59:40.048Z,1.52
2022-12-28T03:01:47.499Z,1.80
2022-12-28T03:04:38.286Z,1.48
2022-12-28T03:07:19.361Z,1.60
2022-12-28T03:09:33.612Z,1.95
2022-12-28T03:11:59.286Z,1.65
2022-12-28T03:14:06.667Z,2.08
2022-12-28T03:16:12.389Z,1.80
2022-12-28T03:18:34.377Z,1.80
2022-12-28T03:20:54.679Z,1.77
2022-12-28T03:23:19.226Z,2.08
2022-12-28T03:25:42.558Z,1.95
2022-12-28T03:28:05.348Z,1.92
2022-12-28T03:30:36.339Z,1.52
2022-12-28T03:32:38.001Z,1.50
2022-12-28T03:34:39.738Z,1.70
2022-12-28T03:37:02.892Z,1.75
2022-12-28T03:39:16.698Z,1.80
2022-12-28T03:41:43.869Z,1.77
2022-12-28T03:43:50.711Z,1.90
2022-12-28T03:45:59.707Z,1.60
2022-12-28T03:48:02.865Z,1.77
2022-12-28T03:50:05.606Z,1.95
2022-12-28T03:52:09.555Z,1.50
2022-12-28T03:54:14.972Z,1.40
2022-12-28T03:56:22.347Z,1.50
2022-12-28T03:58:23.797Z,1.75
2022-12-28T04:00:25.293Z,1.80
2022-12-28T04:02:26.812Z,1.80
2022-12-28T04:04:28.418Z,1.50
2022-12-28T04:06:29.916Z,1.85
2022-12-28T04:08:32.547Z,1.85
2022-12-28T04:10:34.058Z,1.80
2022-12-28T04:12:35.526Z,1.60
2022-12-28T04:14:36.974Z,1.65
2022-12-28T04:16:38.442Z,1.73
2022-12-28T04:18:41.807Z,1.73
2022-12-28T04:20:43.680Z,1.80
2022-12-28T04:22:45.141Z,1.90
2022-12-28T04:24:46.585Z,1.75
2022-12-28T04:26:48.168Z,2.03
2022-12-28T04:28:49.613Z,2.47
2022-12-28T04:30:51.091Z,1.63
2022-12-28T04:32:54.917Z,1.95
2022-12-28T04:34:56.367Z,1.48
2022-12-28T04:36:57.914Z,2.10
2022-12-28T04:39:00.171Z,2.38
2022-12-28T04:41:02.796Z,2.35
2022-12-28T04:43:04.277Z,2.30
2022-12-28T04:45:06.308Z,2.65
2022-12-28T04:47:07.810Z,2.55
2022-12-28T04:49:09.307Z,2.33
2022-12-28T04:51:17.622Z,3.13
2022-12-28T04:53:19.378Z,2.45
2022-12-28T04:55:32.322Z,2.22
2022-12-28T04:57:34.892Z,2.22
2022-12-28T04:59:36.351Z,2.78
2022-12-28T05:01:37.993Z,2.67
2022-12-28T05:03:41.199Z,2.63
2022-12-28T05:05:42.644Z,2.70
2022-12-28T05:07:44.144Z,3.13
2022-12-28T05:09:45.588Z,2.75
2022-12-28T05:11:47.051Z,3.08
2022-12-28T05:13:48.851Z,3.33
2022-12-28T05:15:50.362Z,3.00
2022-12-28T05:17:51.899Z,2.70
2022-12-28T05:19:53.368Z,2.88
2022-12-28T05:21:54.813Z,3.00
2022-12-28T05:23:57.351Z,3.10
2022-12-28T05:25:59.070Z,2.95
2022-12-28T05:28:00.638Z,3.33
2022-12-28T05:30:02.102Z,2.95
2022-12-28T05:32:03.849Z,2.88
2022-12-28T05:34:05.461Z,3.38
2022-12-28T05:36:13.547Z,3.08
2022-12-28T05:38:15.003Z,2.92
2022-12-28T05:40:16.645Z,2.75
2022-12-28T05:42:18.108Z,2.90
2022-12-28T05:44:19.615Z,2.90
2022-12-28T05:46:24.948Z,2.78
2022-12-28T05:48:26.432Z,3.33
2022-12-28T05:50:28.017Z,2.80
2022-12-28T05:52:30.215Z,2.95
2022-12-28T05:54:31.664Z,2.90
2022-12-28T05:56:34.029Z,2.75
2022-12-28T05:58:35.479Z,2.88
2022-12-28T06:00:36.923Z,2.60
2022-12-28T06:02:38.861Z,3.03
2022-12-28T06:04:40.385Z,2.83
2022-12-28T06:06:41.985Z,2.47
2022-12-28T06:08:45.045Z,2.72
2022-12-28T06:10:46.492Z,2.72
2022-12-28T06:12:47.992Z,2.45
2022-12-28T06:14:49.429Z,2.63
2022-12-28T06:16:51.610Z,3.33
2022-12-28T06:18:53.401Z,3.03
2022-12-28T06:20:57.085Z,2.50
2022-12-28T06:22:58.699Z,2.70
2022-12-28T06:25:00.158Z,2.65
2022-12-28T06:27:01.590Z,2.58
2022-12-28T06:29:03.725Z,2.55
2022-12-28T06:31:07.804Z,2.88
2022-12-28T06:33:09.244Z,2.83
2022-12-28T06:35:10.698Z,2.55
2022-12-28T06:37:12.159Z,3.30
2022-12-28T06:39:14.696Z,2.80
2022-12-28T06:41:17.845Z,3.00
2022-12-28T06:43:19.324Z,3.17
2022-12-28T06:45:20.747Z,3.22
2022-12-28T06:47:22.241Z,3.33
2022-12-28T06:49:23.685Z,3.30
2022-12-28T06:51:28.196Z,3.13
2022-12-28T06:53:32.997Z,3.53
2022-12-28T06:55:34.449Z,3.60
2022-12-28T06:57:35.906Z,3.53
2022-12-28T06:59:37.378Z,3.45
2022-12-28T07:01:41.428Z,3.30
2022-12-28T07:03:44.748Z,3.92
2022-12-28T07:05:46.289Z,4.00
2022-12-28T07:07:47.728Z,3.65
2022-12-28T07:09:49.202Z,3.20
2022-12-28T07:11:51.251Z,3.67
2022-12-28T07:13:52.696Z,3.88
2022-12-28T07:15:54.142Z,3.45
2022-12-28T07:17:55.845Z,3.60
2022-12-28T07:19:57.287Z,3.47
2022-12-28T07:21:58.729Z,3.92
2022-12-28T07:24:00.903Z,3.75
2022-12-28T07:26:14.845Z,3.47
2022-12-28T07:28:16.334Z,3.15
2022-12-28T07:30:18.063Z,3.60
2022-12-28T07:32:19.503Z,3.53
2022-12-28T07:34:21.062Z,3.22
2022-12-28T07:36:24.424Z,3.70
2022-12-28T07:38:25.963Z,3.33
2022-12-28T07:40:27.492Z,3.38
2022-12-28T07:42:29.708Z,3.35
2022-12-28T07:44:35.450Z,3.80
2022-12-28T07:46:40.095Z,3.40
2022-12-28T07:48:43.272Z,3.70
2022-12-28T07:50:44.729Z,3.20
2022-12-28T07:52:46.241Z,3.55
2022-12-28T07:54:47.760Z,3.50
2022-12-28T07:56:49.286Z,3.33
2022-12-28T07:58:56.825Z,3.58
2022-12-28T08:01:15.136Z,3.50
2022-12-28T08:03:19.847Z,3.42
2022-12-28T08:05:21.397Z,3.15
2022-12-28T08:07:22.864Z,3.05
2022-12-28T08:09:24.385Z,3.13
2022-12-28T08:11:28.575Z,2.95
2022-12-28T08:13:32.086Z,3.13
2022-12-28T08:15:33.555Z,2.83
2022-12-28T08:17:35.070Z,3.00
2022-12-28T08:19:36.586Z,2.70
2022-12-28T08:21:40.992Z,2.85
2022-12-28T08:23:42.927Z,2.78
2022-12-28T08:25:44.375Z,2.58
2022-12-28T08:27:45.912Z,2.70
2022-12-28T08:29:47.397Z,2.70
2022-12-28T08:31:49.638Z,2.80
2022-12-28T08:33:53.346Z,2.60
2022-12-28T08:35:57.106Z,2.63
2022-12-28T08:37:58.550Z,2.40
2022-12-28T08:40:00.040Z,2.67
2022-12-28T08:42:01.623Z,2.40
2022-12-28T08:44:03.193Z,2.55
2022-12-28T08:46:07.764Z,2.40
2022-12-28T08:48:09.260Z,2.47
2022-12-28T08:50:12.127Z,2.50
2022-12-28T08:52:13.879Z,2.67
2022-12-28T08:54:15.455Z,2.38
2022-12-28T08:56:19.977Z,2.70
2022-12-28T08:58:21.504Z,2.35
2022-12-28T09:00:23.057Z,2.10
2022-12-28T09:02:24.692Z,2.22
2022-12-28T09:04:26.245Z,2.33
2022-12-28T09:06:30.585Z,2.13
2022-12-28T09:08:32.348Z,2.30
2022-12-28T09:10:33.805Z,2.20
2022-12-28T09:12:35.277Z,2.30
2022-12-28T09:14:36.719Z,1.90
2022-12-28T09:16:39.035Z,1.90
2022-12-28T09:18:42.311Z,2.08
2022-12-28T09:20:47.844Z,2.00
2022-12-28T09:22:49.616Z,2.05
2022-12-28T09:24:51.069Z,2.22
2022-12-28T09:26:54.634Z,1.80
2022-12-28T09:28:58.834Z,2.38
2022-12-28T09:31:11.368Z,1.90
2022-12-28T09:33:31.618Z,2.10
2022-12-28T09:35:33.085Z,1.92
2022-12-28T09:37:34.539Z,1.60
2022-12-28T09:39:36.488Z,1.90
2022-12-28T09:42:08.572Z,1.60
2022-12-28T09:44:26.755Z,1.73
2022-12-28T09:46:32.193Z,1.52
2022-12-28T09:48:35.163Z,1.48
2022-12-28T09:50:37.995Z,1.63
2022-12-28T09:53:29.469Z,1.63
2022-12-28T09:55:34.147Z,1.75
2022-12-28T09:57:40.123Z,1.80
2022-12-28T09:59:42.325Z,1.50
2022-12-28T10:01:46.494Z,1.45
2022-12-28T10:03:48.571Z,1.67
2022-12-28T10:05:51.652Z,1.60
2022-12-28T10:07:55.164Z,1.52
2022-12-28T10:09:56.710Z,1.30
2022-12-28T10:11:59.288Z,1.42
2022-12-28T10:14:15.943Z,1.25
2022-12-28T10:16:19.762Z,1.30
2022-12-28T10:18:26.178Z,1.42
2022-12-28T10:20:27.797Z,1.15
2022-12-28T10:22:42.446Z,1.35
2022-12-28T10:24:47.985Z,1.83
2022-12-28T10:26:49.600Z,1.20
2022-12-28T10:28:59.690Z,1.40
2022-12-28T10:31:10.637Z,1.27
2022-12-28T10:33:18.070Z,1.40
2022-12-28T10:35:35.840Z,1.70
2022-12-28T10:37:44.450Z,1.30
2022-12-28T10:39:56.680Z,2.05
2022-12-28T10:42:00.803Z,2.03
2022-12-28T10:44:39.009Z,1.70
2022-12-28T10:46:37.701Z,1.77
2022-12-28T10:48:39.846Z,1.88
2022-12-28T10:50:44.352Z,2.00
2022-12-28T10:52:56.181Z,1.65
2022-12-28T10:55:07.945Z,1.83
2022-12-28T10:57:17.904Z,1.65
2022-12-28T10:59:25.489Z,1.90
2022-12-28T11:01:29.457Z,1.65
2022-12-28T11:03:35.422Z,1.77
2022-12-28T11:05:37.045Z,2.03
2022-12-28T11:07:41.255Z,1.80
2022-12-28T11:09:42.766Z,2.00
2022-12-28T11:11:46.354Z,1.50
2022-12-28T11:13:56.645Z,1.55
2022-12-28T11:15:58.529Z,1.50
2022-12-28T11:18:07.316Z,1.27
2022-12-28T11:20:17.882Z,1.40
2022-12-28T11:22:28.851Z,1.67
2022-12-28T11:24:34.719Z,1.48
2022-12-28T11:28:51.649Z,1.40
2022-12-28T11:30:53.324Z,1.20
2022-12-28T11:33:00.660Z,1.30
2022-12-28T11:35:03.019Z,1.20
2022-12-28T11:37:04.551Z,1.45
2022-12-28T11:39:27.678Z,1.42
2022-12-28T11:41:39.259Z,1.40
2022-12-28T11:43:49.951Z,1.25
2022-12-28T11:45:54.842Z,1.15
2022-12-28T11:48:34.937Z,1.40
2022-12-28T11:50:38.967Z,0.90
2022-12-28T11:52:49.965Z,1.20
2022-12-28T11:54:59.933Z,1.30
2022-12-28T11:57:01.465Z,1.20
2022-12-28T11:59:20.238Z,1.25
2022-12-28T12:01:28.421Z,1.10
2022-12-28T12:03:57.742Z,1.30
2022-12-28T12:05:59.285Z,1.00
2022-12-28T12:08:01.158Z,1.10
2022-12-28T12:10:13.348Z,1.10
2022-12-28T12:12:18.131Z,0.90
2022-12-28T12:14:44.529Z,0.90
2022-12-28T12:16:53.301Z,0.80
2022-12-28T12:21:13.356Z,0.80
2022-12-28T12:23:34.739Z,0.90
2022-12-28T12:25:44.049Z,0.70
2022-12-28T12:27:53.393Z,0.85
2022-12-28T12:30:01.957Z,0.90
2022-12-28T12:32:23.968Z,0.60
2022-12-28T12:34:50.882Z,0.60
2022-12-28T12:37:30.730Z,0.80
2022-12-28T12:39:52.126Z,0.85
2022-12-28T12:42:15.438Z,0.80
2022-12-28T12:44:25.222Z,0.65
2022-12-28T12:46:48.497Z,1.00
2022-12-28T12:49:14.311Z,0.93
2022-12-28T12:51:29.981Z,1.05
2022-12-28T12:53:37.226Z,0.80
2022-12-28T12:56:17.131Z,1.10
2022-12-28T12:58:24.674Z,0.88
2022-12-28T13:00:58.567Z,0.70
2022-12-28T13:03:09.202Z,0.60
2022-12-28T13:05:31.395Z,0.60
2022-12-28T13:07:33.718Z,0.90
2022-12-28T13:09:36.347Z,0.80
2022-12-28T13:11:39.693Z,0.88
2022-12-28T13:13:43.959Z,1.20
2022-12-28T13:15:45.492Z,0.80
2022-12-28T13:18:18.130Z,1.08
2022-12-28T13:20:21.494Z,0.98
2022-12-28T13:22:28.383Z,0.90
2022-12-28T13:24:34.500Z,1.00
2022-12-28T13:26:42.146Z,1.10
2022-12-28T13:28:55.529Z,1.30
2022-12-28T13:31:17.435Z,0.90
2022-12-28T13:33:21.446Z,1.08
2022-12-28T13:35:29.947Z,1.17
2022-12-28T13:37:31.427Z,1.20
2022-12-28T13:39:40.063Z,1.38
2022-12-28T13:41:52.532Z,1.10
2022-12-28T13:44:12.548Z,1.10
2022-12-28T13:46:17.667Z,0.80
2022-12-28T13:48:19.960Z,0.90
2022-12-28T13:50:26.004Z,0.90
2022-12-28T13:52:34.292Z,1.00
2022-12-28T13:54:37.695Z,0.90
2022-12-28T13:56:42.416Z,0.90
2022-12-28T13:58:50.684Z,0.82
2022-12-28T14:00:55.275Z,0.90
2022-12-28T14:02:58.723Z,1.00
2022-12-28T14:05:00.942Z,0.80
2022-12-28T14:07:02.686Z,1.00
2022-12-28T14:09:05.972Z,1.00
2022-12-28T14:11:08.908Z,0.90
2022-12-28T14:13:11.008Z,0.90
2022-12-28T14:15:13.601Z,0.90
2022-12-28T14:17:15.901Z,0.95
2022-12-28T14:19:19.355Z,0.90
2022-12-28T14:21:32.717Z,0.88
2022-12-28T14:23:36.920Z,1.00
2022-12-28T14:25:42.882Z,1.00
2022-12-28T14:28:06.220Z,1.05
2022-12-28T14:30:25.074Z,1.00
2022-12-28T14:32:27.104Z,1.00
2022-12-28T14:34:31.901Z,1.08
2022-12-28T14:36:42.008Z,0.82
2022-12-28T14:38:49.752Z,1.10
2022-12-28T14:40:59.549Z,0.90
2022-12-28T14:43:17.885Z,0.93
2022-12-28T14:45:34.179Z,1.30
2022-12-28T14:47:35.635Z,1.08
2022-12-28T14:49:37.373Z,1.00
2022-12-28T14:54:23.032Z,1.00
2022-12-28T14:56:44.588Z,1.00
2022-12-28T14:58:54.366Z,0.85
2022-12-28T15:00:59.698Z,1.10
2022-12-28T15:03:20.244Z,0.80
2022-12-28T15:05:45.551Z,1.00
2022-12-28T15:07:47.024Z,1.00
2022-12-28T15:09:48.551Z,1.20
2022-12-28T15:11:50.194Z,1.20
2022-12-28T15:13:51.938Z,1.02
2022-12-28T15:15:59.218Z,1.23
2022-12-28T15:18:00.847Z,1.40
2022-12-28T15:20:02.330Z,1.20
2022-12-28T15:22:03.907Z,1.50
2022-12-28T15:24:05.834Z,1.42
2022-12-28T15:26:10.022Z,1.23
2022-12-28T15:28:11.606Z,1.27
2022-12-28T15:30:18.279Z,1.27
2022-12-28T15:34:23.733Z,1.20
2022-12-28T15:37:04.565Z,1.48
2022-12-28T15:39:06.094Z,1.58
2022-12-28T15:41:27.858Z,1.40
2022-12-28T15:43:29.513Z,1.10
2022-12-28T15:45:32.378Z,1.35
2022-12-28T15:47:33.845Z,1.38
2022-12-28T15:49:35.324Z,1.20
2022-12-28T15:51:36.844Z,0.98
2022-12-28T15:53:38.320Z,1.08
2022-12-28T15:55:40.031Z,1.20
2022-12-28T15:57:41.621Z,1.00
2022-12-28T15:59:43.145Z,1.00
2022-12-28T16:01:45.173Z,1.17
2022-12-28T16:03:52.074Z,1.27
2022-12-28T16:05:58.966Z,1.40
2022-12-28T16:08:00.501Z,1.50
2022-12-28T16:10:02.016Z,1.45
2022-12-28T16:12:03.824Z,1.10
2022-12-28T16:14:07.126Z,1.10
2022-12-28T16:16:11.448Z,1.40
2022-12-28T16:18:13.045Z,1.40
2022-12-28T16:20:14.539Z,1.60
2022-12-28T16:22:16.006Z,1.60
2022-12-28T16:24:20.360Z,1.75
2022-12-28T16:26:22.817Z,1.60
2022-12-28T16:28:25.556Z,1.52
2022-12-28T16:30:26.998Z,1.75
2022-12-28T16:32:28.963Z,1.70
2022-12-28T16:34:31.672Z,1.60
2022-12-28T16:36:33.336Z,1.50
2022-12-28T16:38:34.820Z,1.52
2022-12-28T16:40:36.265Z,1.40
2022-12-28T16:42:37.747Z,1.27
2022-12-28T16:44:40.118Z,1.33
2022-12-28T16:46:42.480Z,1.70
2022-12-28T16:48:44.142Z,2.40
2022-12-28T16:50:56.450Z,3.30
2022-12-28T16:53:05.401Z,2.20
2022-12-28T16:55:07.119Z,1.85
2022-12-28T16:57:08.631Z,2.35
2022-12-28T16:59:13.696Z,2.75
2022-12-28T17:01:15.236Z,2.00
2022-12-28T17:03:16.860Z,1.90
2022-12-28T17:05:18.385Z,1.90
2022-12-28T17:07:19.844Z,2.08
2022-12-28T17:09:22.017Z,1.80
2022-12-28T17:11:23.501Z,1.77
2022-12-28T17:13:24.978Z,2.33
2022-12-28T17:15:26.470Z,2.20
2022-12-28T17:17:28.054Z,1.90
2022-12-28T17:19:29.544Z,1.92
2022-12-28T17:21:32.367Z,1.80
2022-12-28T17:23:33.957Z,1.98
2022-12-28T17:25:36.478Z,2.00
2022-12-28T17:27:37.967Z,2.08
2022-12-28T17:29:39.794Z,1.50
2022-12-28T17:31:41.323Z,1.88
2022-12-28T17:33:48.606Z,1.80
2022-12-28T17:35:54.725Z,1.52
2022-12-28T17:37:56.205Z,1.70
2022-12-28T17:39:58.100Z,1.52
2022-12-28T17:41:59.996Z,1.77
2022-12-28T17:44:01.584Z,1.33
2022-12-28T17:46:03.265Z,1.40
2022-12-28T17:48:05.170Z,1.60
2022-12-28T17:50:07.425Z,1.40
2022-12-28T17:52:08.924Z,1.63
2022-12-28T17:54:11.906Z,1.50
2022-12-28T17:56:14.275Z,1.77
2022-12-28T17:58:16.129Z,1.48
2022-12-28T18:00:17.896Z,1.50
2022-12-28T18:02:19.509Z,1.20
2022-12-28T18:04:21.105Z,1.40
2022-12-28T18:06:22.850Z,1.30
2022-12-28T18:08:24.391Z,1.40
2022-12-28T18:10:26.081Z,1.40
2022-12-28T18:12:27.853Z,1.58
2022-12-28T18:14:29.596Z,1.23
2022-12-28T18:16:31.093Z,1.20
2022-12-28T18:18:33.361Z,1.05
2022-12-28T18:20:35.106Z,1.45
2022-12-28T18:22:36.602Z,1.48
2022-12-28T18:24:38.256Z,1.10
2022-12-28T18:26:39.833Z,1.30
2022-12-28T18:28:41.392Z,1.00
2022-12-28T18:30:43.374Z,1.40
2022-12-28T18:32:44.890Z,1.20
2022-12-28T18:34:46.384Z,1.30
2022-12-28T18:36:47.906Z,1.35
2022-12-28T18:38:50.052Z,1.00
2022-12-28T18:40:57.162Z,1.20
2022-12-28T18:42:58.659Z,1.40
2022-12-28T18:45:00.165Z,1.33
2022-12-28T18:47:01.624Z,1.30
2022-12-28T18:49:03.166Z,1.25
2022-12-28T18:51:08.311Z,1.40
2022-12-28T18:53:09.761Z,1.33
2022-12-28T18:55:11.284Z,1.40
2022-12-28T18:57:12.741Z,1.20
2022-12-28T18:59:14.204Z,1.30
2022-12-28T19:03:45.099Z,1.30
2022-12-28T19:05:46.867Z,1.40
2022-12-28T19:07:49.661Z,1.23
2022-12-28T19:10:12.437Z,1.17
2022-12-28T19:12:15.138Z,1.17
2022-12-28T19:14:16.698Z,1.17
2022-12-28T19:16:24.463Z,1.30
2022-12-28T19:18:30.323Z,1.40
2022-12-28T19:20:31.787Z,1.45
2022-12-28T19:22:33.379Z,1.63
2022-12-28T19:24:34.822Z,1.48
2022-12-28T19:26:36.389Z,1.67
2022-12-28T19:28:37.964Z,1.20
2022-12-28T19:30:39.412Z,1.45
2022-12-28T19:32:40.839Z,1.35
2022-12-28T19:34:42.312Z,1.33
2022-12-28T19:36:43.864Z,1.48
2022-12-28T19:38:45.707Z,1.50
2022-12-28T19:40:47.544Z,1.40
2022-12-28T19:42:49.126Z,1.40
2022-12-28T19:44:50.673Z,1.85
2022-12-28T19:46:54.004Z,1.40
2022-12-28T19:48:55.527Z,1.23
2022-12-28T19:50:57.172Z,1.63
2022-12-28T19:52:58.697Z,1.35
2022-12-28T19:55:00.230Z,1.58
2022-12-28T19:57:01.824Z,1.05
2022-12-28T19:59:06.677Z,1.83
2022-12-28T20:01:22.953Z,1.55
2022-12-28T20:03:24.518Z,1.38
2022-12-28T20:05:26.178Z,1.40
2022-12-28T20:07:27.646Z,1.23
2022-12-28T20:09:29.125Z,1.70
2022-12-28T20:11:30.616Z,1.52
2022-12-28T20:13:33.210Z,1.50
2022-12-28T20:15:34.999Z,1.70
2022-12-28T20:17:36.437Z,1.65
2022-12-28T20:19:38.565Z,1.45
2022-12-28T20:21:41.899Z,1.73
2022-12-28T20:23:44.152Z,1.70
2022-12-28T20:25:53.868Z,1.50
2022-12-28T20:27:55.339Z,1.45
2022-12-28T20:29:57.065Z,1.40
2022-12-28T20:31:58.710Z,1.40
2022-12-28T20:34:00.487Z,1.40
2022-12-28T20:36:11.951Z,1.98
2022-12-28T20:38:13.405Z,1.52
2022-12-28T20:40:14.843Z,1.77
2022-12-28T20:42:54.885Z,1.50
2022-12-28T20:44:58.427Z,1.20
2022-12-28T20:47:01.864Z,1.60
2022-12-28T20:49:04.209Z,1.27
2022-12-28T20:51:05.754Z,1.55
2022-12-28T20:53:07.298Z,1.80
2022-12-28T20:55:08.860Z,1.65
2022-12-28T20:57:10.327Z,1.27
2022-12-28T20:59:13.371Z,1.38
2022-12-28T21:01:16.053Z,1.50
2022-12-28T21:03:17.587Z,1.52
2022-12-28T21:05:19.091Z,1.60
2022-12-28T21:07:20.606Z,1.50
2022-12-28T21:09:22.409Z,1.55
2022-12-28T21:11:24.183Z,1.55
2022-12-28T21:13:26.390Z,1.58
2022-12-28T21:15:28.121Z,1.30
2022-12-28T21:17:29.628Z,1.77
2022-12-28T21:19:31.064Z,1.17
2022-12-28T21:21:32.578Z,1.30
2022-12-28T21:23:34.118Z,1.35
2022-12-28T21:25:35.557Z,1.73
2022-12-28T21:27:37.056Z,1.20
2022-12-28T21:29:38.513Z,1.40
2022-12-28T21:31:40.048Z,1.48
2022-12-28T21:33:42.274Z,1.20
2022-12-28T21:35:43.712Z,1.23
2022-12-28T21:37:45.179Z,1.50
2022-12-28T21:39:46.858Z,1.58
2022-12-28T21:41:48.648Z,1.23
2022-12-28T21:43:50.103Z,1.50
2022-12-28T21:46:03.084Z,1.45
2022-12-28T21:48:04.824Z,1.40
2022-12-28T21:50:08.353Z,1.30
2022-12-28T21:52:09.829Z,1.52
2022-12-28T21:54:22.120Z,1.48
2022-12-28T21:56:23.971Z,3.13
2022-12-28T21:58:25.457Z,1.38
2022-12-28T22:00:45.616Z,1.50
2022-12-28T22:03:05.794Z,1.40
2022-12-28T22:05:27.997Z,1.58
2022-12-28T22:07:30.557Z,1.58
2022-12-28T22:09:52.683Z,1.55
2022-12-28T22:12:12.347Z,1.30
2022-12-28T22:14:13.777Z,1.60
2022-12-28T22:16:15.300Z,1.70
2022-12-28T22:20:39.644Z,1.75
2022-12-28T22:22:42.528Z,1.70
2022-12-28T22:24:43.991Z,2.00
2022-12-28T22:26:45.515Z,1.90
2022-12-28T22:28:46.999Z,1.52
2022-12-28T22:30:48.440Z,2.15
2022-12-28T22:32:49.940Z,1.88
2022-12-28T22:34:51.514Z,1.90
2022-12-28T22:36:52.950Z,1.83
2022-12-28T22:38:54.608Z,1.92
2022-12-28T22:40:57.654Z,2.10
2022-12-28T22:42:59.101Z,1.92
2022-12-28T22:45:00.560Z,1.90
2022-12-28T22:47:02.130Z,2.55
2022-12-28T22:49:03.669Z,1.90
2022-12-28T22:51:10.910Z,2.05
2022-12-28T22:53:12.373Z,1.88
2022-12-28T22:55:14.538Z,2.28
2022-12-28T22:57:15.993Z,2.05
2022-12-28T22:59:17.440Z,1.90
2022-12-28T23:01:20.480Z,2.47
2022-12-28T23:03:22.047Z,2.38
2022-12-28T23:05:23.522Z,2.25
2022-12-28T23:07:24.979Z,2.38
2022-12-28T23:09:26.512Z,2.40
2022-12-28T23:11:36.721Z,2.50
2022-12-28T23:13:38.196Z,2.40
2022-12-28T23:15:39.639Z,2.42
2022-12-28T23:17:41.091Z,2.58
2022-12-28T23:20:05.290Z,2.58
2022-12-28T23:22:26.111Z,2.33
2022-12-28T23:24:45.931Z,2.80
2022-12-28T23:27:05.819Z,2.40
2022-12-28T23:29:07.252Z,2.50
2022-12-28T23:31:08.771Z,2.45
2022-12-28T23:33:10.307Z,2.40
2022-12-28T23:35:11.790Z,2.78
2022-12-28T23:37:13.269Z,2.42
2022-12-28T23:39:14.716Z,2.70
2022-12-28T23:41:35.152Z,1.98
2022-12-28T23:43:36.618Z,2.28
2022-12-28T23:45:38.210Z,2.22
2022-12-28T23:47:40.044Z,2.47
2022-12-28T23:49:41.489Z,2.20
2022-12-28T23:51:44.838Z,2.35
2022-12-28T23:53:46.352Z,2.50
2022-12-28T23:55:47.800Z,2.40
2022-12-28T23:57:49.269Z,2.28
2022-12-28T23:59:50.739Z,2.30
